sensor_id;sensor_type;location;lat;lon;timestamp;pressure;altitude;pressure_sealevel;temperature;humidity
25526;BME280;13424;48.424;11.258;2022-07-06T00:01:10;96065.84;;;19.10;60.30
25526;BME280;13424;48.424;11.258;2022-07-06T00:03:36;96070.94;;;18.78;60.22
25526;BME280;13424;48.424;11.258;2022-07-06T00:06:02;96066.41;;;19.07;60.46
25526;BME280;13424;48.424;11.258;2022-07-06T00:08:28;96072.44;;;18.94;60.81
25526;BME280;13424;48.424;11.258;2022-07-06T00:10:55;96073.47;;;18.54;61.06
25526;BME280;13424;48.424;11.258;2022-07-06T00:13:21;96076.31;;;18.83;61.35
25526;BME280;13424;48.424;11.258;2022-07-06T00:15:48;96073.69;;;18.73;61.02
25526;BME280;13424;48.424;11.258;2022-07-06T00:18:23;96076.84;;;18.85;61.77
25526;BME280;13424;48.424;11.258;2022-07-06T00:20:49;96071.94;;;18.87;62.84
25526;BME280;13424;48.424;11.258;2022-07-06T00:23:15;96063.09;;;18.81;62.13
25526;BME280;13424;48.424;11.258;2022-07-06T00:25:41;96068.81;;;18.69;63.27
25526;BME280;13424;48.424;11.258;2022-07-06T00:28:07;96076.38;;;18.73;62.74
25526;BME280;13424;48.424;11.258;2022-07-06T00:30:33;96073.97;;;18.61;63.71
25526;BME280;13424;48.424;11.258;2022-07-06T00:32:58;96075.66;;;18.52;63.42
25526;BME280;13424;48.424;11.258;2022-07-06T00:35:25;96071.13;;;18.42;63.47
25526;BME280;13424;48.424;11.258;2022-07-06T00:37:51;96075.94;;;18.45;63.35
25526;BME280;13424;48.424;11.258;2022-07-06T00:40:18;96070.09;;;18.28;64.10
25526;BME280;13424;48.424;11.258;2022-07-06T00:42:47;96064.19;;;18.21;65.37
25526;BME280;13424;48.424;11.258;2022-07-06T00:45:16;96062.63;;;18.04;65.44
25526;BME280;13424;48.424;11.258;2022-07-06T00:51:34;96063.94;;;18.17;62.77
25526;BME280;13424;48.424;11.258;2022-07-06T00:54:04;96061.53;;;18.10;65.35
25526;BME280;13424;48.424;11.258;2022-07-06T00:56:32;96059.88;;;18.14;64.44
25526;BME280;13424;48.424;11.258;2022-07-06T00:59:00;96056.91;;;18.16;64.35
25526;BME280;13424;48.424;11.258;2022-07-06T01:01:28;96062.56;;;18.14;63.31
25526;BME280;13424;48.424;11.258;2022-07-06T01:03:55;96059.88;;;18.14;64.25
25526;BME280;13424;48.424;11.258;2022-07-06T01:06:21;96056.66;;;18.12;63.41
25526;BME280;13424;48.424;11.258;2022-07-06T01:08:47;96058.25;;;18.13;64.44
25526;BME280;13424;48.424;11.258;2022-07-06T01:11:20;96058.84;;;18.00;64.03
25526;BME280;13424;48.424;11.258;2022-07-06T01:13:47;96051.03;;;18.04;62.81
25526;BME280;13424;48.424;11.258;2022-07-06T01:16:15;96052.91;;;18.03;63.07
25526;BME280;13424;48.424;11.258;2022-07-06T01:18:41;96052.91;;;18.03;64.60
25526;BME280;13424;48.424;11.258;2022-07-06T01:21:14;96051.81;;;18.04;64.37
25526;BME280;13424;48.424;11.258;2022-07-06T01:23:46;96052.44;;;17.76;66.57
25526;BME280;13424;48.424;11.258;2022-07-06T01:26:18;96048.97;;;17.70;66.76
25526;BME280;13424;48.424;11.258;2022-07-06T01:28:46;96047.06;;;17.55;67.11
25526;BME280;13424;48.424;11.258;2022-07-06T01:31:25;96049.25;;;17.28;65.58
25526;BME280;13424;48.424;11.258;2022-07-06T01:33:55;96051.13;;;17.38;65.81
25526;BME280;13424;48.424;11.258;2022-07-06T01:36:23;96049.78;;;17.71;65.68
25526;BME280;13424;48.424;11.258;2022-07-06T01:38:56;96047.06;;;17.66;66.30
25526;BME280;13424;48.424;11.258;2022-07-06T01:41:25;96046.81;;;17.62;65.98
25526;BME280;13424;48.424;11.258;2022-07-06T01:43:51;96040.59;;;17.51;65.67
25526;BME280;13424;48.424;11.258;2022-07-06T01:46:18;96043.53;;;17.60;65.86
25526;BME280;13424;48.424;11.258;2022-07-06T01:48:46;96040.31;;;17.58;67.05
25526;BME280;13424;48.424;11.258;2022-07-06T01:51:13;96043.78;;;17.69;65.73
25526;BME280;13424;48.424;11.258;2022-07-06T01:53:40;96047.88;;;17.56;67.21
25526;BME280;13424;48.424;11.258;2022-07-06T01:56:08;96050.84;;;17.54;66.64
25526;BME280;13424;48.424;11.258;2022-07-06T01:58:35;96039.53;;;17.37;67.73
25526;BME280;13424;48.424;11.258;2022-07-06T02:01:11;96043.59;;;17.29;68.07
25526;BME280;13424;48.424;11.258;2022-07-06T02:03:38;96050.31;;;17.37;68.31
25526;BME280;13424;48.424;11.258;2022-07-06T02:06:06;96049.50;;;17.37;67.34
25526;BME280;13424;48.424;11.258;2022-07-06T02:08:34;96041.69;;;17.35;68.07
25526;BME280;13424;48.424;11.258;2022-07-06T02:11:04;96049.25;;;17.28;67.34
25526;BME280;13424;48.424;11.258;2022-07-06T02:13:33;96046.28;;;17.19;69.10
25526;BME280;13424;48.424;11.258;2022-07-06T02:16:03;96048.16;;;17.29;68.88
25526;BME280;13424;48.424;11.258;2022-07-06T02:18:30;96047.63;;;17.22;68.38
25526;BME280;13424;48.424;11.258;2022-07-06T02:20:57;96047.09;;;17.35;68.18
25526;BME280;13424;48.424;11.258;2022-07-06T02:23:22;96044.41;;;17.40;68.03
25526;BME280;13424;48.424;11.258;2022-07-06T02:26:00;96042.50;;;17.36;68.82
25526;BME280;13424;48.424;11.258;2022-07-06T02:28:26;96046.00;;;17.36;69.04
25526;BME280;13424;48.424;11.258;2022-07-06T02:30:52;96049.53;;;17.26;69.58
25526;BME280;13424;48.424;11.258;2022-07-06T02:33:18;96055.72;;;17.22;70.00
25526;BME280;13424;48.424;11.258;2022-07-06T02:35:47;96053.56;;;17.29;70.28
25526;BME280;13424;48.424;11.258;2022-07-06T02:38:13;96049.25;;;17.13;71.14
25526;BME280;13424;48.424;11.258;2022-07-06T02:41:19;96056.28;;;17.03;71.68
25526;BME280;13424;48.424;11.258;2022-07-06T02:43:46;96050.34;;;16.96;72.36
25526;BME280;13424;48.424;11.258;2022-07-06T02:46:12;96051.41;;;16.85;72.97
25526;BME280;13424;48.424;11.258;2022-07-06T02:48:40;96051.41;;;16.90;72.86
25526;BME280;13424;48.424;11.258;2022-07-06T02:51:06;96053.84;;;16.92;72.58
25526;BME280;13424;48.424;11.258;2022-07-06T02:53:34;96048.47;;;16.92;73.34
25526;BME280;13424;48.424;11.258;2022-07-06T02:56:00;96051.41;;;17.06;72.20
25526;BME280;13424;48.424;11.258;2022-07-06T02:58:27;96050.88;;;17.03;72.77
25526;BME280;13424;48.424;11.258;2022-07-06T03:00:53;96050.34;;;17.17;71.82
25526;BME280;13424;48.424;11.258;2022-07-06T03:03:19;96051.69;;;17.29;71.51
25526;BME280;13424;48.424;11.258;2022-07-06T03:05:46;96061.38;;;17.20;72.03
25526;BME280;13424;48.424;11.258;2022-07-06T03:08:15;96057.09;;;17.24;72.11
25526;BME280;13424;48.424;11.258;2022-07-06T03:10:41;96067.06;;;17.34;71.67
25526;BME280;13424;48.424;11.258;2022-07-06T03:13:08;96071.38;;;17.25;71.91
25526;BME280;13424;48.424;11.258;2022-07-06T03:15:34;96073.53;;;17.38;71.74
25526;BME280;13424;48.424;11.258;2022-07-06T03:19:04;96073.78;;;17.26;72.16
25526;BME280;13424;48.424;11.258;2022-07-06T03:21:31;96072.44;;;17.29;71.85
25526;BME280;13424;48.424;11.258;2022-07-06T03:23:57;96076.75;;;17.25;72.10
25526;BME280;13424;48.424;11.258;2022-07-06T03:26:24;96078.38;;;17.26;72.01
25526;BME280;13424;48.424;11.258;2022-07-06T03:28:50;96078.91;;;17.18;72.81
25526;BME280;13424;48.424;11.258;2022-07-06T03:31:17;96078.63;;;17.04;73.78
25526;BME280;13424;48.424;11.258;2022-07-06T03:33:43;96088.91;;;17.07;74.37
25526;BME280;13424;48.424;11.258;2022-07-06T03:36:09;96091.03;;;17.20;74.76
25526;BME280;13424;48.424;11.258;2022-07-06T03:39:14;96082.97;;;17.41;74.53
25526;BME280;13424;48.424;11.258;2022-07-06T03:41:40;96085.94;;;17.39;74.48
25526;BME280;13424;48.424;11.258;2022-07-06T03:44:14;96081.88;;;17.47;74.21
25526;BME280;13424;48.424;11.258;2022-07-06T03:46:40;96085.66;;;17.46;74.30
25526;BME280;13424;48.424;11.258;2022-07-06T03:49:06;96092.13;;;17.40;74.43
25526;BME280;13424;48.424;11.258;2022-07-06T03:51:32;96083.22;;;17.49;74.47
25526;BME280;13424;48.424;11.258;2022-07-06T03:53:58;96082.97;;;17.46;74.76
25526;BME280;13424;48.424;11.258;2022-07-06T03:56:28;96077.56;;;17.41;75.36
25526;BME280;13424;48.424;11.258;2022-07-06T03:59:02;96078.91;;;17.48;74.87
25526;BME280;13424;48.424;11.258;2022-07-06T04:01:31;96085.66;;;17.41;75.10
25526;BME280;13424;48.424;11.258;2022-07-06T04:03:59;96075.94;;;17.50;75.05
25526;BME280;13424;48.424;11.258;2022-07-06T04:06:28;96079.97;;;17.63;74.44
25526;BME280;13424;48.424;11.258;2022-07-06T04:08:54;96084.28;;;17.64;74.60
25526;BME280;13424;48.424;11.258;2022-07-06T04:11:20;96087.53;;;17.71;74.18
25526;BME280;13424;48.424;11.258;2022-07-06T04:13:46;96098.03;;;17.62;74.60
25526;BME280;13424;48.424;11.258;2022-07-06T04:16:37;96098.84;;;17.73;73.80
25526;BME280;13424;48.424;11.258;2022-07-06T04:19:04;96108.53;;;17.94;73.20
25526;BME280;13424;48.424;11.258;2022-07-06T04:21:30;96110.47;;;17.78;73.96
25526;BME280;13424;48.424;11.258;2022-07-06T04:23:57;96109.13;;;17.71;74.47
25526;BME280;13424;48.424;11.258;2022-07-06T04:26:36;96106.16;;;17.72;74.42
25526;BME280;13424;48.424;11.258;2022-07-06T04:29:02;96108.53;;;17.69;74.90
25526;BME280;13424;48.424;11.258;2022-07-06T04:31:29;96110.16;;;17.95;74.33
25526;BME280;13424;48.424;11.258;2022-07-06T04:34:52;96111.16;;;18.20;73.59
25526;BME280;13424;48.424;11.258;2022-07-06T04:37:18;96113.34;;;18.07;74.54
25526;BME280;13424;48.424;11.258;2022-07-06T04:39:44;96116.59;;;18.09;74.74
25526;BME280;13424;48.424;11.258;2022-07-06T04:42:10;96111.78;;;17.86;75.89
25526;BME280;13424;48.424;11.258;2022-07-06T04:44:37;96113.41;;;17.87;75.87
25526;BME280;13424;48.424;11.258;2022-07-06T04:47:03;96113.66;;;17.91;75.62
25526;BME280;13424;48.424;11.258;2022-07-06T04:49:32;96124.13;;;18.12;75.14
25526;BME280;13424;48.424;11.258;2022-07-06T04:51:58;96117.19;;;18.61;73.31
25526;BME280;13424;48.424;11.258;2022-07-06T04:55:21;96120.94;;;18.80;72.27
25526;BME280;13424;48.424;11.258;2022-07-06T04:57:48;96116.25;;;18.91;71.98
25526;BME280;13424;48.424;11.258;2022-07-06T05:00:17;96110.50;;;18.48;74.39
25526;BME280;13424;48.424;11.258;2022-07-06T05:02:43;96116.16;;;18.57;75.32
25526;BME280;13424;48.424;11.258;2022-07-06T05:05:10;96113.75;;;18.40;75.77
25526;BME280;13424;48.424;11.258;2022-07-06T05:07:38;96114.47;;;18.71;74.99
25526;BME280;13424;48.424;11.258;2022-07-06T05:10:08;96116.00;;;18.87;74.87
25526;BME280;13424;48.424;11.258;2022-07-06T05:12:38;96123.56;;;18.90;74.46
25526;BME280;13424;48.424;11.258;2022-07-06T05:15:06;96115.31;;;19.11;73.46
25526;BME280;13424;48.424;11.258;2022-07-06T05:17:33;96120.59;;;18.87;72.76
25526;BME280;13424;48.424;11.258;2022-07-06T05:20:01;96125.09;;;19.41;69.56
25526;BME280;13424;48.424;11.258;2022-07-06T05:22:31;96119.31;;;19.87;67.57
25526;BME280;13424;48.424;11.258;2022-07-06T05:24:57;96122.09;;;21.85;61.50
25526;BME280;13424;48.424;11.258;2022-07-06T05:31:18;96134.53;;;24.36;56.28
25526;BME280;13424;48.424;11.258;2022-07-06T05:33:44;96146.66;;;25.35;53.04
25526;BME280;13424;48.424;11.258;2022-07-06T05:36:10;96144.25;;;25.33;53.18
25526;BME280;13424;48.424;11.258;2022-07-06T05:38:36;96143.13;;;24.29;54.40
25526;BME280;13424;48.424;11.258;2022-07-06T05:41:05;96143.22;;;23.26;57.02
25526;BME280;13424;48.424;11.258;2022-07-06T05:43:36;96147.34;;;22.32;57.87
25526;BME280;13424;48.424;11.258;2022-07-06T05:46:04;96140.19;;;21.90;60.72
25526;BME280;13424;48.424;11.258;2022-07-06T05:49:09;96149.88;;;20.88;60.28
25526;BME280;13424;48.424;11.258;2022-07-06T05:51:54;96147.16;;;20.88;61.83
25526;BME280;13424;48.424;11.258;2022-07-06T05:54:20;96146.63;;;20.67;61.56
25526;BME280;13424;48.424;11.258;2022-07-06T05:56:47;96150.03;;;20.78;61.52
25526;BME280;13424;48.424;11.258;2022-07-06T05:59:14;96151.38;;;20.75;61.30
25526;BME280;13424;48.424;11.258;2022-07-06T06:01:40;96159.03;;;20.92;62.33
25526;BME280;13424;48.424;11.258;2022-07-06T06:04:12;96159.78;;;21.16;61.41
25526;BME280;13424;48.424;11.258;2022-07-06T06:06:38;96159.47;;;21.56;62.16
25526;BME280;13424;48.424;11.258;2022-07-06T06:09:04;96158.78;;;21.50;61.61
25526;BME280;13424;48.424;11.258;2022-07-06T06:11:30;96162.81;;;21.53;62.82
25526;BME280;13424;48.424;11.258;2022-07-06T06:13:57;96161.50;;;21.31;60.54
25526;BME280;13424;48.424;11.258;2022-07-06T06:16:24;96153.72;;;21.43;61.03
25526;BME280;13424;48.424;11.258;2022-07-06T06:18:50;96156.13;;;21.96;60.76
25526;BME280;13424;48.424;11.258;2022-07-06T06:21:16;96154.31;;;22.06;59.75
25526;BME280;13424;48.424;11.258;2022-07-06T06:23:42;96151.44;;;21.83;58.84
25526;BME280;13424;48.424;11.258;2022-07-06T06:26:08;96160.59;;;21.55;59.38
25526;BME280;13424;48.424;11.258;2022-07-06T06:28:34;96160.53;;;21.60;59.83
25526;BME280;13424;48.424;11.258;2022-07-06T06:31:02;96165.72;;;22.08;60.74
25526;BME280;13424;48.424;11.258;2022-07-06T06:33:28;96166.50;;;21.76;58.87
25526;BME280;13424;48.424;11.258;2022-07-06T06:35:54;96164.63;;;22.22;57.58
25526;BME280;13424;48.424;11.258;2022-07-06T06:38:22;96164.41;;;21.72;58.26
25526;BME280;13424;48.424;11.258;2022-07-06T06:40:51;96166.38;;;21.48;59.49
25526;BME280;13424;48.424;11.258;2022-07-06T06:43:21;96161.28;;;22.12;58.80
25526;BME280;13424;48.424;11.258;2022-07-06T06:46:10;96159.63;;;22.29;59.01
25526;BME280;13424;48.424;11.258;2022-07-06T06:48:38;96156.00;;;22.48;56.67
25526;BME280;13424;48.424;11.258;2022-07-06T06:51:04;96164.03;;;22.25;58.38
25526;BME280;13424;48.424;11.258;2022-07-06T06:57:26;96172.44;;;23.34;54.80
25526;BME280;13424;48.424;11.258;2022-07-06T06:59:52;96171.06;;;23.45;56.01
25526;BME280;13424;48.424;11.258;2022-07-06T07:02:18;96180.28;;;23.94;54.81
25526;BME280;13424;48.424;11.258;2022-07-06T07:04:43;96168.41;;;23.67;57.19
25526;BME280;13424;48.424;11.258;2022-07-06T07:07:09;96164.13;;;23.03;55.98
25526;BME280;13424;48.424;11.258;2022-07-06T07:09:35;96163.88;;;23.85;53.31
25526;BME280;13424;48.424;11.258;2022-07-06T07:12:03;96165.97;;;23.30;54.00
25526;BME280;13424;48.424;11.258;2022-07-06T07:14:29;96167.16;;;23.74;54.25
25526;BME280;13424;48.424;11.258;2022-07-06T07:16:55;96163.75;;;23.90;54.83
25526;BME280;13424;48.424;11.258;2022-07-06T07:19:26;96164.81;;;23.81;54.31
25526;BME280;13424;48.424;11.258;2022-07-06T07:21:51;96166.63;;;24.16;54.31
25526;BME280;13424;48.424;11.258;2022-07-06T07:24:17;96156.94;;;23.21;54.12
25526;BME280;13424;48.424;11.258;2022-07-06T07:26:43;96166.59;;;23.27;54.08
25526;BME280;13424;48.424;11.258;2022-07-06T07:29:09;96163.13;;;24.24;54.09
25526;BME280;13424;48.424;11.258;2022-07-06T07:31:36;96165.78;;;23.85;52.65
25526;BME280;13424;48.424;11.258;2022-07-06T07:34:02;96171.31;;;22.99;54.73
25526;BME280;13424;48.424;11.258;2022-07-06T07:36:29;96171.09;;;24.12;55.35
25526;BME280;13424;48.424;11.258;2022-07-06T07:38:55;96168.25;;;24.17;54.87
25526;BME280;13424;48.424;11.258;2022-07-06T07:41:21;96167.25;;;24.13;54.85
25526;BME280;13424;48.424;11.258;2022-07-06T07:43:47;96171.81;;;23.95;54.29
25526;BME280;13424;48.424;11.258;2022-07-06T07:46:13;96169.94;;;23.24;54.26
25526;BME280;13424;48.424;11.258;2022-07-06T07:48:39;96174.31;;;24.14;54.01
25526;BME280;13424;48.424;11.258;2022-07-06T07:51:05;96172.91;;;23.00;55.55
25526;BME280;13424;48.424;11.258;2022-07-06T07:53:32;96167.91;;;23.88;55.28
25526;BME280;13424;48.424;11.258;2022-07-06T07:55:58;96172.22;;;24.34;54.27
25526;BME280;13424;48.424;11.258;2022-07-06T08:02:08;96174.69;;;25.01;53.06
25526;BME280;13424;48.424;11.258;2022-07-06T08:04:35;96174.69;;;24.21;53.38
25526;BME280;13424;48.424;11.258;2022-07-06T08:07:01;96174.34;;;23.70;54.67
25526;BME280;13424;48.424;11.258;2022-07-06T08:09:27;96173.50;;;24.85;54.07
25526;BME280;13424;48.424;11.258;2022-07-06T08:11:53;96175.41;;;25.32;53.04
25526;BME280;13424;48.424;11.258;2022-07-06T08:14:19;96178.53;;;25.00;53.37
25526;BME280;13424;48.424;11.258;2022-07-06T08:16:45;96176.72;;;25.44;51.55
25526;BME280;13424;48.424;11.258;2022-07-06T08:19:11;96180.84;;;25.67;51.33
25526;BME280;13424;48.424;11.258;2022-07-06T08:21:41;96181.34;;;25.34;52.80
25526;BME280;13424;48.424;11.258;2022-07-06T08:24:08;96184.72;;;25.31;53.67
25526;BME280;13424;48.424;11.258;2022-07-06T08:26:34;96184.25;;;25.38;51.23
25526;BME280;13424;48.424;11.258;2022-07-06T08:30:00;96179.91;;;25.63;52.04
25526;BME280;13424;48.424;11.258;2022-07-06T08:32:26;96176.22;;;25.68;53.23
25526;BME280;13424;48.424;11.258;2022-07-06T08:34:52;96183.69;;;26.49;51.95
25526;BME280;13424;48.424;11.258;2022-07-06T08:37:19;96182.34;;;25.73;50.42
25526;BME280;13424;48.424;11.258;2022-07-06T08:39:45;96186.19;;;25.55;51.69
25526;BME280;13424;48.424;11.258;2022-07-06T08:43:05;96187.84;;;24.99;51.63
25526;BME280;13424;48.424;11.258;2022-07-06T08:45:34;96183.84;;;23.58;51.93
25526;BME280;13424;48.424;11.258;2022-07-06T08:48:06;96191.03;;;25.75;50.84
25526;BME280;13424;48.424;11.258;2022-07-06T08:50:34;96194.22;;;25.86;49.80
25526;BME280;13424;48.424;11.258;2022-07-06T08:53:01;96191.69;;;24.98;50.66
25526;BME280;13424;48.424;11.258;2022-07-06T08:55:29;96187.38;;;24.97;51.21
25526;BME280;13424;48.424;11.258;2022-07-06T08:58:13;96191.97;;;25.97;51.32
25526;BME280;13424;48.424;11.258;2022-07-06T09:00:40;96190.50;;;25.39;50.47
25526;BME280;13424;48.424;11.258;2022-07-06T09:03:07;96185.38;;;25.46;51.19
25526;BME280;13424;48.424;11.258;2022-07-06T09:05:37;96191.50;;;25.60;49.45
25526;BME280;13424;48.424;11.258;2022-07-06T09:08:03;96189.84;;;26.11;51.88
25526;BME280;13424;48.424;11.258;2022-07-06T09:10:30;96196.97;;;25.95;51.10
25526;BME280;13424;48.424;11.258;2022-07-06T09:13:07;96188.13;;;25.72;50.84
25526;BME280;13424;48.424;11.258;2022-07-06T09:15:35;96183.56;;;26.19;49.68
25526;BME280;13424;48.424;11.258;2022-07-06T09:18:04;96192.22;;;26.21;47.97
25526;BME280;13424;48.424;11.258;2022-07-06T09:21:08;96185.66;;;26.39;50.93
25526;BME280;13424;48.424;11.258;2022-07-06T09:23:36;96189.19;;;26.78;50.61
25526;BME280;13424;48.424;11.258;2022-07-06T09:26:05;96188.50;;;26.34;49.99
25526;BME280;13424;48.424;11.258;2022-07-06T09:28:45;96195.00;;;25.43;48.70
25526;BME280;13424;48.424;11.258;2022-07-06T09:31:13;96192.94;;;24.43;49.36
25526;BME280;13424;48.424;11.258;2022-07-06T09:33:52;96195.03;;;25.69;49.21
25526;BME280;13424;48.424;11.258;2022-07-06T09:36:40;96200.19;;;25.79;50.51
25526;BME280;13424;48.424;11.258;2022-07-06T09:39:29;96206.22;;;26.84;46.87
25526;BME280;13424;48.424;11.258;2022-07-06T09:42:06;96205.03;;;26.93;46.98
25526;BME280;13424;48.424;11.258;2022-07-06T09:44:38;96203.81;;;26.82;47.63
25526;BME280;13424;48.424;11.258;2022-07-06T09:47:12;96200.22;;;27.91;49.67
25526;BME280;13424;48.424;11.258;2022-07-06T09:49:39;96200.94;;;26.06;47.36
25526;BME280;13424;48.424;11.258;2022-07-06T09:52:10;96203.81;;;26.82;47.50
25526;BME280;13424;48.424;11.258;2022-07-06T09:54:38;96200.06;;;27.25;47.64
25526;BME280;13424;48.424;11.258;2022-07-06T09:57:06;96199.94;;;26.83;48.95
25526;BME280;13424;48.424;11.258;2022-07-06T09:59:35;96200.47;;;27.57;46.49
25526;BME280;13424;48.424;11.258;2022-07-06T10:02:06;96197.53;;;28.03;44.58
25526;BME280;13424;48.424;11.258;2022-07-06T10:04:33;96198.34;;;27.41;47.20
25526;BME280;13424;48.424;11.258;2022-07-06T10:07:00;96190.16;;;27.12;46.40
25526;BME280;13424;48.424;11.258;2022-07-06T10:09:29;96191.66;;;27.93;45.23
25526;BME280;13424;48.424;11.258;2022-07-06T10:12:01;96195.00;;;27.57;44.91
25526;BME280;13424;48.424;11.258;2022-07-06T10:14:33;96188.19;;;27.42;46.09
25526;BME280;13424;48.424;11.258;2022-07-06T10:17:03;96190.88;;;27.71;44.38
25526;BME280;13424;48.424;11.258;2022-07-06T10:19:32;96189.78;;;28.05;43.96
25526;BME280;13424;48.424;11.258;2022-07-06T10:22:02;96200.91;;;28.54;45.56
25526;BME280;13424;48.424;11.258;2022-07-06T10:24:29;96199.69;;;27.98;43.68
25526;BME280;13424;48.424;11.258;2022-07-06T10:26:56;96195.66;;;27.53;44.60
25526;BME280;13424;48.424;11.258;2022-07-06T10:29:24;96188.88;;;26.24;45.64
25526;BME280;13424;48.424;11.258;2022-07-06T10:31:53;96194.25;;;26.59;48.46
25526;BME280;13424;48.424;11.258;2022-07-06T10:34:21;96188.91;;;26.71;45.03
25526;BME280;13424;48.424;11.258;2022-07-06T10:36:53;96193.78;;;27.24;45.77
25526;BME280;13424;48.424;11.258;2022-07-06T10:39:37;96189.94;;;26.49;46.69
25526;BME280;13424;48.424;11.258;2022-07-06T10:42:45;96186.28;;;27.13;47.49
25526;BME280;13424;48.424;11.258;2022-07-06T10:50:49;96189.28;;;27.91;43.71
25526;BME280;13424;48.424;11.258;2022-07-06T10:53:28;96190.91;;;29.07;44.61
25526;BME280;13424;48.424;11.258;2022-07-06T10:55:56;96190.31;;;29.14;43.40
25526;BME280;13424;48.424;11.258;2022-07-06T10:58:50;96182.13;;;28.11;43.34
25526;BME280;13424;48.424;11.258;2022-07-06T11:01:21;96185.50;;;26.74;44.17
25526;BME280;13424;48.424;11.258;2022-07-06T11:03:51;96187.53;;;27.66;44.84
25526;BME280;13424;48.424;11.258;2022-07-06T11:06:38;96179.84;;;27.80;40.85
25526;BME280;13424;48.424;11.258;2022-07-06T11:09:10;96186.00;;;28.31;42.98
25526;BME280;13424;48.424;11.258;2022-07-06T11:14:13;96181.41;;;27.69;43.80
25526;BME280;13424;48.424;11.258;2022-07-06T11:17:03;96185.84;;;27.52;44.30
25526;BME280;13424;48.424;11.258;2022-07-06T11:20:26;96190.66;;;28.76;41.45
25526;BME280;13424;48.424;11.258;2022-07-06T11:22:52;96194.75;;;28.82;42.10
25526;BME280;13424;48.424;11.258;2022-07-06T11:25:19;96186.75;;;28.77;43.74
25526;BME280;13424;48.424;11.258;2022-07-06T11:27:47;96172.19;;;28.40;42.20
25526;BME280;13424;48.424;11.258;2022-07-06T11:30:14;96174.66;;;26.86;43.44
25526;BME280;13424;48.424;11.258;2022-07-06T11:32:41;96174.16;;;27.43;44.85
25526;BME280;13424;48.424;11.258;2022-07-06T11:35:07;96191.34;;;27.52;43.82
25526;BME280;13424;48.424;11.258;2022-07-06T11:37:59;96177.69;;;28.06;45.44
25526;BME280;13424;48.424;11.258;2022-07-06T11:40:25;96169.81;;;28.75;42.13
25526;BME280;13424;48.424;11.258;2022-07-06T11:42:54;96168.81;;;29.16;42.81
25526;BME280;13424;48.424;11.258;2022-07-06T11:49:24;96165.63;;;29.02;43.99
25526;BME280;13424;48.424;11.258;2022-07-06T11:51:50;96165.97;;;29.00;40.85
25526;BME280;13424;48.424;11.258;2022-07-06T11:54:21;96167.50;;;28.40;42.23
25526;BME280;13424;48.424;11.258;2022-07-06T11:56:55;96154.47;;;28.49;41.86
25526;BME280;13424;48.424;11.258;2022-07-06T11:59:29;96154.63;;;28.77;43.81
25526;BME280;13424;48.424;11.258;2022-07-06T12:02:09;96151.06;;;29.13;43.12
25526;BME280;13424;48.424;11.258;2022-07-06T12:04:46;96158.16;;;29.27;42.93
25526;BME280;13424;48.424;11.258;2022-07-06T12:07:34;96149.25;;;27.57;41.23
25526;BME280;13424;48.424;11.258;2022-07-06T12:10:00;96149.97;;;27.04;41.80
25526;BME280;13424;48.424;11.258;2022-07-06T12:12:26;96147.88;;;26.71;43.60
25526;BME280;13424;48.424;11.258;2022-07-06T12:14:52;96152.09;;;26.04;43.36
25526;BME280;13424;48.424;11.258;2022-07-06T12:17:19;96136.25;;;26.74;43.68
25526;BME280;13424;48.424;11.258;2022-07-06T12:19:53;96147.19;;;27.75;43.67
25526;BME280;13424;48.424;11.258;2022-07-06T12:22:25;96141.16;;;27.61;43.75
25526;BME280;13424;48.424;11.258;2022-07-06T12:24:52;96131.41;;;28.99;42.37
25526;BME280;13424;48.424;11.258;2022-07-06T12:27:19;96136.53;;;28.88;41.71
25526;BME280;13424;48.424;11.258;2022-07-06T12:29:47;96137.44;;;27.98;41.46
25526;BME280;13424;48.424;11.258;2022-07-06T12:32:21;96128.44;;;29.04;41.13
25526;BME280;13424;48.424;11.258;2022-07-06T12:35:08;96134.59;;;29.13;40.80
25526;BME280;13424;48.424;11.258;2022-07-06T12:37:35;96123.94;;;27.81;41.12
25526;BME280;13424;48.424;11.258;2022-07-06T12:40:13;96129.25;;;28.10;42.41
25526;BME280;13424;48.424;11.258;2022-07-06T12:42:48;96128.53;;;28.47;42.75
25526;BME280;13424;48.424;11.258;2022-07-06T12:46:31;96124.19;;;28.82;41.21
25526;BME280;13424;48.424;11.258;2022-07-06T12:49:00;96121.81;;;28.69;40.25
25526;BME280;13424;48.424;11.258;2022-07-06T12:51:26;96121.56;;;28.74;39.25
25526;BME280;13424;48.424;11.258;2022-07-06T12:54:11;96126.13;;;29.18;40.80
25526;BME280;13424;48.424;11.258;2022-07-06T12:56:37;96120.34;;;29.36;40.61
25526;BME280;13424;48.424;11.258;2022-07-06T12:59:24;96122.03;;;28.63;40.82
25526;BME280;13424;48.424;11.258;2022-07-06T13:01:50;96120.91;;;28.52;40.51
25526;BME280;13424;48.424;11.258;2022-07-06T13:04:17;96117.13;;;28.69;39.76
25526;BME280;13424;48.424;11.258;2022-07-06T13:07:21;96120.50;;;29.67;41.04
25526;BME280;13424;48.424;11.258;2022-07-06T13:09:47;96111.19;;;30.00;40.02
25526;BME280;13424;48.424;11.258;2022-07-06T13:12:13;96116.66;;;29.84;42.87
25526;BME280;13424;48.424;11.258;2022-07-06T13:14:39;96116.78;;;28.95;40.67
25526;BME280;13424;48.424;11.258;2022-07-06T13:17:05;96118.06;;;26.78;41.05
25526;BME280;13424;48.424;11.258;2022-07-06T13:19:31;96121.75;;;27.87;40.98
25526;BME280;13424;48.424;11.258;2022-07-06T13:21:57;96115.31;;;28.28;41.94
25526;BME280;13424;48.424;11.258;2022-07-06T13:24:23;96117.94;;;27.67;41.10
25526;BME280;13424;48.424;11.258;2022-07-06T13:26:49;96115.84;;;28.67;41.25
25526;BME280;13424;48.424;11.258;2022-07-06T13:29:15;96112.75;;;28.31;41.24
25526;BME280;13424;48.424;11.258;2022-07-06T13:31:41;96117.81;;;28.78;39.84
25526;BME280;13424;48.424;11.258;2022-07-06T13:34:07;96115.16;;;29.18;40.68
25526;BME280;13424;48.424;11.258;2022-07-06T13:36:35;96117.91;;;28.82;41.79